Time;durP1;ratioP1;P1;durP2;ratioP2;P2;SDS_P1;SDS_P2;PMS_P1;PMS_P2;Temp;Humidity;BMP_temperature;BMP_pressure;BME280_temperature;BME280_humidity;BME280_pressure;Samples;Min_cycle;Max_cycle;Signal;HPM_P1;HPM_P2
2023/07/21 01:56:30;;;;;;;1999.90;999.90;;;;;;;;;;4923001;29;20748;-74
2023/07/21 01:59:16;;;;;;;1999.90;999.90;;;;;;;;;;4934309;29;20269;-72
2023/07/21 02:02:01;;;;;;;1999.90;999.90;;;;;;;;;;4932057;29;20212;-74
2023/07/21 02:04:49;;;;;;;1999.90;999.90;;;;;;;;;;4918396;29;20499;-76
2023/07/21 02:07:35;;;;;;;1999.90;999.90;;;;;;;;;;4911227;29;20210;-74
2023/07/21 02:10:20;;;;;;;1999.90;999.90;;;;;;;;;;4906161;29;20233;-74
2023/07/21 02:13:06;;;;;;;1999.90;999.90;;;;;;;;;;4910770;29;20751;-74
2023/07/21 02:15:52;;;;;;;1999.90;999.90;;;;;;;;;;4923638;29;20753;-72
2023/07/21 02:18:38;;;;;;;1999.90;999.90;;;;;;;;;;4931324;29;20232;-71
2023/07/21 02:21:24;;;;;;;1999.90;999.90;;;;;;;;;;4922655;29;20261;-73
2023/07/21 02:24:08;;;;;;;1999.90;999.90;;;;;;;;;;4933887;29;20733;-74
2023/07/21 02:26:54;;;;;;;1999.90;999.90;;;;;;;;;;4934599;29;20229;-73
2023/07/21 02:29:40;;;;;;;1999.90;999.90;;;;;;;;;;4924033;29;20206;-69
2023/07/21 02:32:25;;;;;;;1999.90;999.90;;;;;;;;;;4921716;29;20212;-73
2023/07/21 02:35:10;;;;;;;1999.90;999.90;;;;;;;;;;4934292;29;20273;-73
2023/07/21 02:37:57;;;;;;;1999.90;999.90;;;;;;;;;;4934464;29;20697;-73
2023/07/21 02:40:42;;;;;;;1999.90;999.90;;;;;;;;;;4908347;29;20218;-72
2023/07/21 02:43:27;;;;;;;1999.90;999.90;;;;;;;;;;4916116;29;21367;-71
2023/07/21 02:46:14;;;;;;;1999.90;999.90;;;;;;;;;;4909711;29;20746;-73
2023/07/21 02:48:59;;;;;;;1999.90;999.90;;;;;;;;;;4912735;29;20228;-72
2023/07/21 02:51:44;;;;;;;1999.90;999.90;;;;;;;;;;4907957;29;20333;-71
2023/07/21 02:54:30;;;;;;;1999.90;999.90;;;;;;;;;;4910677;29;20237;-73
2023/07/21 02:57:15;;;;;;;1999.90;999.90;;;;;;;;;;4934190;29;20895;-74
2023/07/21 03:00:01;;;;;;;1999.90;999.90;;;;;;;;;;4927399;29;20265;-74
2023/07/21 03:02:47;;;;;;;1999.90;999.90;;;;;;;;;;4934420;29;20281;-72
2023/07/21 03:05:32;;;;;;;1999.90;999.90;;;;;;;;;;4925942;29;20304;-73
2023/07/21 03:08:26;;;;;;;1999.90;999.90;;;;;;;;;;4914877;29;20238;-73
2023/07/21 03:11:13;;;;;;;1999.90;999.90;;;;;;;;;;4933041;29;20205;-74
2023/07/21 03:13:58;;;;;;;1999.90;999.90;;;;;;;;;;4924333;29;20233;-74
2023/07/21 03:16:43;;;;;;;1999.90;999.90;;;;;;;;;;4934095;29;20261;-72
2023/07/21 03:19:30;;;;;;;1999.90;999.90;;;;;;;;;;4931387;29;20846;-75
2023/07/21 03:22:16;;;;;;;1999.90;999.90;;;;;;;;;;4936290;29;20754;-73
2023/07/21 03:25:01;;;;;;;1999.90;999.90;;;;;;;;;;4934471;29;20233;-74
2023/07/21 03:27:46;;;;;;;1999.90;999.90;;;;;;;;;;4934306;29;20200;-73
2023/07/21 03:30:31;;;;;;;1999.90;999.90;;;;;;;;;;4924953;29;20286;-73
2023/07/21 03:33:17;;;;;;;1999.90;999.90;;;;;;;;;;4932349;29;20218;-73
2023/07/21 03:36:04;;;;;;;1999.90;999.90;;;;;;;;;;4937467;29;20208;-73
2023/07/21 03:38:50;;;;;;;1999.90;999.90;;;;;;;;;;4931280;29;20257;-73
2023/07/21 03:41:34;;;;;;;1999.90;999.90;;;;;;;;;;4920165;29;20719;-73
2023/07/21 03:44:19;;;;;;;1999.90;999.90;;;;;;;;;;4929807;29;20252;-74
2023/07/21 03:47:04;;;;;;;1999.90;999.90;;;;;;;;;;4937492;29;20217;-71
2023/07/21 03:49:50;;;;;;;1999.90;999.90;;;;;;;;;;4909775;29;20218;-71
2023/07/21 03:52:36;;;;;;;1999.90;999.90;;;;;;;;;;4914002;29;20206;-72
2023/07/21 03:55:23;;;;;;;1999.90;999.90;;;;;;;;;;4901831;29;20417;-71
2023/07/21 03:58:08;;;;;;;1999.90;999.90;;;;;;;;;;4913483;29;20215;-74
2023/07/21 04:00:53;;;;;;;1999.90;999.90;;;;;;;;;;4913825;29;20333;-73
2023/07/21 04:03:38;;;;;;;1999.90;999.90;;;;;;;;;;4907757;29;20249;-73
2023/07/21 04:06:24;;;;;;;1999.90;999.90;;;;;;;;;;4921931;29;20228;-73
2023/07/21 04:09:12;;;;;;;1999.90;999.90;;;;;;;;;;4927630;29;20342;-73
2023/07/21 04:11:57;;;;;;;1999.90;999.90;;;;;;;;;;4935142;29;20221;-73
2023/07/21 04:14:42;;;;;;;1999.90;999.90;;;;;;;;;;4931003;29;20319;-74
2023/07/21 04:17:27;;;;;;;1999.90;999.90;;;;;;;;;;4934169;29;20237;-74
2023/07/21 04:20:13;;;;;;;1999.90;999.90;;;;;;;;;;4936111;29;20213;-73
2023/07/21 04:22:58;;;;;;;1999.90;999.90;;;;;;;;;;4931172;29;20209;-73
2023/07/21 04:25:45;;;;;;;1999.90;999.90;;;;;;;;;;4925567;29;20298;-75
2023/07/21 04:28:30;;;;;;;1999.90;999.90;;;;;;;;;;4931810;29;20217;-73
2023/07/21 04:31:21;;;;;;;1999.90;999.90;;;;;;;;;;4935927;29;20210;-73
2023/07/21 04:34:06;;;;;;;1999.90;999.90;;;;;;;;;;4928876;29;20477;-73
2023/07/21 04:36:51;;;;;;;1999.90;999.90;;;;;;;;;;4931535;29;20574;-73
2023/07/21 04:39:36;;;;;;;1999.90;999.90;;;;;;;;;;4918731;29;20208;-74
2023/07/21 04:42:22;;;;;;;1999.90;999.90;;;;;;;;;;4923903;29;20217;-73
2023/07/21 04:45:11;;;;;;;1999.90;999.90;;;;;;;;;;4935762;29;20225;-73
2023/07/21 04:47:55;;;;;;;1999.90;999.90;;;;;;;;;;4927885;29;20214;-75
2023/07/21 04:50:42;;;;;;;1999.90;999.90;;;;;;;;;;4923158;29;20479;-74
2023/07/21 04:53:27;;;;;;;1999.90;999.90;;;;;;;;;;4920111;29;20214;-73
2023/07/21 04:56:13;;;;;;;1999.90;999.90;;;;;;;;;;4925372;29;20209;-72
2023/07/21 04:58:59;;;;;;;1999.90;999.90;;;;;;;;;;4908987;29;20230;-74
2023/07/21 05:01:44;;;;;;;1999.90;999.90;;;;;;;;;;4915004;29;20214;-74
2023/07/21 05:04:29;;;;;;;1999.90;999.90;;;;;;;;;;4910712;29;20376;-73
2023/07/21 05:07:14;;;;;;;1999.90;999.90;;;;;;;;;;4919831;29;20588;-72
2023/07/21 05:09:59;;;;;;;1999.90;999.90;;;;;;;;;;4925556;29;20210;-72
2023/07/21 05:12:43;;;;;;;1999.90;999.90;;;;;;;;;;4914623;29;20723;-74
2023/07/21 05:15:30;;;;;;;1999.90;999.90;;;;;;;;;;4908564;29;20319;-74
2023/07/21 05:18:15;;;;;;;1999.90;999.90;;;;;;;;;;4900893;29;20250;-71
2023/07/21 05:21:00;;;;;;;1999.90;999.90;;;;;;;;;;4910986;29;20695;-70
2023/07/21 05:23:45;;;;;;;1999.90;999.90;;;;;;;;;;4915178;29;20225;-74
2023/07/21 05:26:32;;;;;;;1999.90;999.90;;;;;;;;;;4901654;29;20299;-71
2023/07/21 05:29:17;;;;;;;1999.90;999.90;;;;;;;;;;4897601;29;20649;-73
2023/07/21 05:32:06;;;;;;;1999.90;999.90;;;;;;;;;;4897642;29;20210;-73
2023/07/21 05:34:50;;;;;;;1999.90;999.90;;;;;;;;;;4912732;29;20599;-73
2023/07/21 05:37:35;;;;;;;1999.90;999.90;;;;;;;;;;4897473;29;20689;-74
2023/07/21 05:40:21;;;;;;;1999.90;999.90;;;;;;;;;;4905354;29;20217;-71
2023/07/21 05:43:06;;;;;;;1999.90;999.90;;;;;;;;;;4907378;29;20214;-72
2023/07/21 05:45:51;;;;;;;1999.90;999.90;;;;;;;;;;4900260;29;20286;-73
2023/07/21 05:48:37;;;;;;;1999.90;999.90;;;;;;;;;;4907876;29;20208;-74
2023/07/21 05:51:22;;;;;;;1999.90;999.90;;;;;;;;;;4897801;29;20219;-74
2023/07/21 05:54:08;;;;;;;1999.90;999.90;;;;;;;;;;4897132;29;20720;-73
2023/07/21 05:56:54;;;;;;;1999.90;999.90;;;;;;;;;;4903819;29;20287;-74
2023/07/21 05:59:41;;;;;;;1999.90;999.90;;;;;;;;;;4905157;29;20210;-72
2023/07/21 06:02:26;;;;;;;1999.90;999.90;;;;;;;;;;4913067;29;20206;-71
2023/07/21 06:05:12;;;;;;;1999.90;999.90;;;;;;;;;;4914906;29;20735;-74
2023/07/21 06:07:57;;;;;;;1999.90;999.90;;;;;;;;;;4914825;29;20210;-75
2023/07/21 06:10:42;;;;;;;1999.90;999.90;;;;;;;;;;4914592;29;20213;-74
2023/07/21 06:13:28;;;;;;;1999.90;999.90;;;;;;;;;;4914489;29;20209;-75
2023/07/21 06:16:13;;;;;;;1999.90;999.90;;;;;;;;;;4896981;29;20213;-71
2023/07/21 06:19:00;;;;;;;1999.90;999.90;;;;;;;;;;4901008;29;20222;-73
2023/07/21 06:21:46;;;;;;;1999.90;999.90;;;;;;;;;;4896350;29;20275;-76
2023/07/21 06:24:31;;;;;;;1999.90;999.90;;;;;;;;;;4904936;29;20519;-74
2023/07/21 06:27:17;;;;;;;1999.90;999.90;;;;;;;;;;4910911;29;20253;-74
2023/07/21 06:30:02;;;;;;;1999.90;999.90;;;;;;;;;;4909415;29;20219;-72
2023/07/21 06:32:47;;;;;;;1999.90;999.90;;;;;;;;;;4910115;29;20296;-73
2023/07/21 06:35:33;;;;;;;1999.90;999.90;;;;;;;;;;4914512;29;20260;-73
2023/07/21 06:38:20;;;;;;;1999.90;999.90;;;;;;;;;;4912600;29;20607;-73
2023/07/21 06:41:05;;;;;;;1999.90;999.90;;;;;;;;;;4913965;29;20214;-72
2023/07/21 06:43:49;;;;;;;1999.90;999.90;;;;;;;;;;4906951;29;20445;-73
2023/07/21 06:46:34;;;;;;;1999.90;999.90;;;;;;;;;;4912979;29;20238;-72
2023/07/21 06:49:19;;;;;;;1999.90;999.90;;;;;;;;;;4903958;29;20223;-73
2023/07/21 06:52:04;;;;;;;1999.90;999.90;;;;;;;;;;4900753;29;20311;-74
2023/07/21 06:54:51;;;;;;;1999.90;999.90;;;;;;;;;;4896195;29;20246;-74
2023/07/21 06:57:36;;;;;;;1999.90;999.90;;;;;;;;;;4898877;29;20614;-74
2023/07/21 07:00:21;;;;;;;1999.90;999.90;;;;;;;;;;4907292;29;20222;-74
2023/07/21 07:03:07;;;;;;;1999.90;999.90;;;;;;;;;;4900007;29;20638;-73
2023/07/21 07:05:52;;;;;;;1999.90;999.90;;;;;;;;;;4917928;29;20221;-74
2023/07/21 07:08:37;;;;;;;1999.90;999.90;;;;;;;;;;4918119;29;20213;-74
2023/07/21 07:11:23;;;;;;;1999.90;999.90;;;;;;;;;;4914507;29;20293;-74
2023/07/21 07:14:08;;;;;;;1999.90;999.90;;;;;;;;;;4911237;29;20274;-74
2023/07/21 07:16:53;;;;;;;1999.90;999.90;;;;;;;;;;4905331;29;20225;-74
2023/07/21 07:19:38;;;;;;;1999.90;999.90;;;;;;;;;;4916778;29;20592;-72
2023/07/21 07:22:23;;;;;;;1999.90;999.90;;;;;;;;;;4915694;29;20440;-73
2023/07/21 07:25:08;;;;;;;1999.90;999.90;;;;;;;;;;4906386;29;20254;-74
2023/07/21 07:27:54;;;;;;;1999.90;999.90;;;;;;;;;;4909451;29;20218;-73
2023/07/21 07:30:39;;;;;;;1999.90;999.90;;;;;;;;;;4906727;29;20210;-73
2023/07/21 07:33:24;;;;;;;1999.90;999.90;;;;;;;;;;4911191;29;20584;-74
2023/07/21 07:36:11;;;;;;;1999.90;999.90;;;;;;;;;;4901985;29;20795;-73
2023/07/21 07:38:56;;;;;;;1999.90;999.90;;;;;;;;;;4903530;29;20323;-74
2023/07/21 07:41:41;;;;;;;1999.90;999.90;;;;;;;;;;4905276;29;20899;-74
2023/07/21 07:44:27;;;;;;;1999.90;999.90;;;;;;;;;;4903595;29;20229;-74
2023/07/21 07:47:12;;;;;;;1999.90;999.90;;;;;;;;;;4899244;29;20231;-74
2023/07/21 07:49:57;;;;;;;1999.90;999.90;;;;;;;;;;4911452;29;20570;-74
2023/07/21 07:52:43;;;;;;;1999.90;999.90;;;;;;;;;;4915863;29;20209;-74
2023/07/21 07:55:28;;;;;;;1999.90;999.90;;;;;;;;;;4915064;29;20254;-75
2023/07/21 07:58:13;;;;;;;1999.90;999.90;;;;;;;;;;4916937;29;20706;-74
2023/07/21 08:01:00;;;;;;;1999.90;999.90;;;;;;;;;;4913071;29;20219;-74
2023/07/21 08:03:45;;;;;;;1999.90;999.90;;;;;;;;;;4906064;29;20233;-76
2023/07/21 08:06:29;;;;;;;1999.90;999.90;;;;;;;;;;4916089;29;20269;-74
2023/07/21 08:09:14;;;;;;;1999.90;999.90;;;;;;;;;;4916918;29;20706;-74
2023/07/21 08:11:59;;;;;;;1999.90;999.90;;;;;;;;;;4917425;29;20304;-74
2023/07/21 08:14:44;;;;;;;1999.90;999.90;;;;;;;;;;4915292;29;20237;-74
2023/07/21 08:17:30;;;;;;;1999.90;999.90;;;;;;;;;;4917453;29;20220;-74
2023/07/21 08:20:16;;;;;;;1999.90;999.90;;;;;;;;;;4916670;29;20722;-74
2023/07/21 08:23:01;;;;;;;1999.90;999.90;;;;;;;;;;4916529;29;20702;-74
2023/07/21 08:25:46;;;;;;;1999.90;999.90;;;;;;;;;;4915388;29;20238;-73
2023/07/21 08:28:30;;;;;;;1999.90;999.90;;;;;;;;;;4906280;29;20583;-74
2023/07/21 08:31:15;;;;;;;1999.90;999.90;;;;;;;;;;4898305;29;20221;-73
2023/07/21 08:34:02;;;;;;;1999.90;999.90;;;;;;;;;;4898451;29;20233;-74
2023/07/21 08:36:47;;;;;;;1999.90;999.90;;;;;;;;;;4897364;29;20547;-73
2023/07/21 08:39:32;;;;;;;1999.90;999.90;;;;;;;;;;4913411;29;20218;-74
2023/07/21 08:42:18;;;;;;;1999.90;999.90;;;;;;;;;;4904991;29;20706;-72
2023/07/21 08:45:04;;;;;;;1999.90;999.90;;;;;;;;;;4903811;29;20258;-74
2023/07/21 08:47:49;;;;;;;1999.90;999.90;;;;;;;;;;4904311;29;20358;-73
2023/07/21 08:50:36;;;;;;;1999.90;999.90;;;;;;;;;;4899560;29;20308;-72
2023/07/21 08:53:21;;;;;;;1999.90;999.90;;;;;;;;;;4898346;29;20308;-72
2023/07/21 08:56:09;;;;;;;1999.90;999.90;;;;;;;;;;4897753;29;20218;-75
2023/07/21 08:58:54;;;;;;;1999.90;999.90;;;;;;;;;;4900206;29;20215;-72
2023/07/21 09:01:39;;;;;;;1999.90;999.90;;;;;;;;;;4914838;29;20240;-75
2023/07/21 09:04:25;;;;;;;1999.90;999.90;;;;;;;;;;4919347;29;20671;-74
2023/07/21 09:07:12;;;;;;;1999.90;999.90;;;;;;;;;;4898164;29;20359;-74
2023/07/21 09:09:57;;;;;;;1999.90;999.90;;;;;;;;;;4908642;29;20299;-74
2023/07/21 09:12:42;;;;;;;1999.90;999.90;;;;;;;;;;4915522;29;20419;-74
2023/07/21 09:15:27;;;;;;;1999.90;999.90;;;;;;;;;;4915641;29;20237;-75
2023/07/21 09:18:11;;;;;;;1999.90;999.90;;;;;;;;;;4922268;29;20233;-75
2023/07/21 09:20:57;;;;;;;1999.90;999.90;;;;;;;;;;4924057;29;20217;-75
2023/07/21 09:23:43;;;;;;;1999.90;999.90;;;;;;;;;;4926020;29;20253;-75
2023/07/21 09:26:28;;;;;;;1999.90;999.90;;;;;;;;;;4927271;29;20259;-74
2023/07/21 09:29:16;;;;;;;1999.90;999.90;;;;;;;;;;4924253;29;20719;-75
2023/07/21 09:32:02;;;;;;;1999.90;999.90;;;;;;;;;;4919684;29;20421;-75
2023/07/21 09:34:55;;;;;;;1999.90;999.90;;;;;;;;;;4921609;29;20233;-76
2023/07/21 09:37:41;;;;;;;1999.90;999.90;;;;;;;;;;4926495;29;20214;-75
2023/07/21 09:40:30;;;;;;;1999.90;999.90;;;;;;;;;;4927648;29;20696;-75
2023/07/21 09:43:16;;;;;;;1999.90;999.90;;;;;;;;;;4923795;29;20217;-74
2023/07/21 09:46:01;;;;;;;1999.90;999.90;;;;;;;;;;4926211;29;20218;-75
2023/07/21 09:48:47;;;;;;;1999.90;999.90;;;;;;;;;;4922199;29;20225;-75
2023/07/21 09:51:34;;;;;;;1999.90;999.90;;;;;;;;;;4919259;29;20209;-74
2023/07/21 09:54:22;;;;;;;1999.90;999.90;;;;;;;;;;4911337;29;20316;-75
2023/07/21 09:57:10;;;;;;;1999.90;999.90;;;;;;;;;;4923973;29;20291;-75
2023/07/21 10:00:00;;;;;;;1999.90;999.90;;;;;;;;;;4925298;29;20218;-75
2023/07/21 10:02:46;;;;;;;1999.90;999.90;;;;;;;;;;4920307;29;20696;-77
2023/07/21 10:05:32;;;;;;;1999.90;999.90;;;;;;;;;;4919302;29;20229;-77
2023/07/21 10:08:17;;;;;;;1999.90;999.90;;;;;;;;;;4922306;29;20320;-77
2023/07/21 10:11:02;;;;;;;1999.90;999.90;;;;;;;;;;4921745;29;20214;-74
2023/07/21 10:13:49;;;;;;;1999.90;999.90;;;;;;;;;;4912134;29;20318;-74
2023/07/21 10:16:34;;;;;;;1999.90;999.90;;;;;;;;;;4914381;29;20209;-77
2023/07/21 10:19:20;;;;;;;1999.90;999.90;;;;;;;;;;4909710;29;20225;-76
2023/07/21 10:22:06;;;;;;;1999.90;999.90;;;;;;;;;;4921740;29;20217;-77
2023/07/21 10:24:52;;;;;;;1999.90;999.90;;;;;;;;;;4921000;29;20230;-75
2023/07/21 10:27:37;;;;;;;1999.90;999.90;;;;;;;;;;4920432;29;20455;-79
2023/07/21 10:30:24;;;;;;;1999.90;999.90;;;;;;;;;;4928410;29;20219;-76
2023/07/21 10:33:12;;;;;;;1999.90;999.90;;;;;;;;;;4931677;29;20217;-76
2023/07/21 10:36:13;;;;;;;1999.90;999.90;;;;;;;;;;4928049;29;20221;-76
2023/07/21 10:39:01;;;;;;;1999.90;999.90;;;;;;;;;;4924104;29;20213;-76
2023/07/21 10:41:46;;;;;;;1999.90;999.90;;;;;;;;;;4929456;29;20571;-78
2023/07/21 10:44:35;;;;;;;1999.90;999.90;;;;;;;;;;4922839;29;20228;-79
2023/07/21 10:47:22;;;;;;;1999.90;999.90;;;;;;;;;;4929253;29;20240;-79
2023/07/21 10:50:08;;;;;;;1999.90;999.90;;;;;;;;;;4932590;29;20237;-78
2023/07/21 10:52:53;;;;;;;1999.90;999.90;;;;;;;;;;4930504;29;21481;-78
2023/07/21 10:55:38;;;;;;;1999.90;999.90;;;;;;;;;;4928022;29;20232;-78
2023/07/21 10:58:23;;;;;;;1999.90;999.90;;;;;;;;;;4926061;29;20220;-77
2023/07/21 11:01:08;;;;;;;1999.90;999.90;;;;;;;;;;4923010;29;20220;-75
2023/07/21 11:03:55;;;;;;;1999.90;999.90;;;;;;;;;;4922313;29;20511;-77
2023/07/21 11:06:42;;;;;;;1999.90;999.90;;;;;;;;;;4922425;29;20272;-77
2023/07/21 11:09:28;;;;;;;1999.90;999.90;;;;;;;;;;4926314;29;20280;-77
2023/07/21 11:12:13;;;;;;;1999.90;999.90;;;;;;;;;;4927417;29;20592;-77
2023/07/21 11:14:59;;;;;;;1999.90;999.90;;;;;;;;;;4926393;29;20233;-78
2023/07/21 11:17:45;;;;;;;1999.90;999.90;;;;;;;;;;4928426;29;20252;-77
2023/07/21 11:20:31;;;;;;;1999.90;999.90;;;;;;;;;;4927415;29;20342;-78
2023/07/21 11:23:17;;;;;;;1999.90;999.90;;;;;;;;;;4923683;29;20843;-78
2023/07/21 11:26:03;;;;;;;1999.90;999.90;;;;;;;;;;4930274;29;20213;-78
2023/07/21 11:28:50;;;;;;;1999.90;999.90;;;;;;;;;;4929808;29;20600;-79
2023/07/21 11:31:36;;;;;;;1999.90;999.90;;;;;;;;;;4910699;29;20297;-76
2023/07/21 11:34:22;;;;;;;1999.90;999.90;;;;;;;;;;4910201;29;20718;-76
2023/07/21 11:37:09;;;;;;;1999.90;999.90;;;;;;;;;;4925202;29;20208;-76
2023/07/21 11:39:57;;;;;;;1999.90;999.90;;;;;;;;;;4937035;29;20221;-78
2023/07/21 11:42:46;;;;;;;1999.90;999.90;;;;;;;;;;4933333;29;20205;-78
2023/07/21 11:45:33;;;;;;;1999.90;999.90;;;;;;;;;;4900282;29;20367;-78
2023/07/21 11:48:18;;;;;;;1999.90;999.90;;;;;;;;;;4925172;29;20229;-77
2023/07/21 11:51:04;;;;;;;1999.90;999.90;;;;;;;;;;4937885;29;20213;-78
2023/07/21 11:53:50;;;;;;;1999.90;999.90;;;;;;;;;;4933190;29;20237;-77
2023/07/21 11:56:35;;;;;;;1999.90;999.90;;;;;;;;;;4922219;29;20236;-76
2023/07/21 11:59:21;;;;;;;1999.90;999.90;;;;;;;;;;4899108;29;20417;-77
2023/07/21 12:02:07;;;;;;;1999.90;999.90;;;;;;;;;;4916449;29;20213;-79
2023/07/21 12:04:53;;;;;;;1999.90;999.90;;;;;;;;;;4916826;29;20233;-77
2023/07/21 12:07:38;;;;;;;1999.90;999.90;;;;;;;;;;4911565;29;20250;-77
2023/07/21 12:10:24;;;;;;;1999.90;999.90;;;;;;;;;;4923410;29;20208;-78
2023/07/21 12:13:10;;;;;;;1999.90;999.90;;;;;;;;;;4933874;29;20338;-77
2023/07/21 12:15:55;;;;;;;1999.90;999.90;;;;;;;;;;4934660;29;20209;-76
2023/07/21 12:18:40;;;;;;;1999.90;999.90;;;;;;;;;;4920203;29;20457;-77
2023/07/21 12:21:25;;;;;;;1999.90;999.90;;;;;;;;;;4925208;29;20337;-78
2023/07/21 12:24:11;;;;;;;1999.90;999.90;;;;;;;;;;4930859;29;20311;-78
2023/07/21 12:26:57;;;;;;;1999.90;999.90;;;;;;;;;;4905177;29;20345;-77
2023/07/21 12:29:42;;;;;;;1999.90;999.90;;;;;;;;;;4904918;29;20219;-77
2023/07/21 12:32:27;;;;;;;1999.90;999.90;;;;;;;;;;4899420;29;20219;-77
2023/07/21 12:35:12;;;;;;;1999.90;999.90;;;;;;;;;;4908092;29;20237;-75
2023/07/21 12:37:57;;;;;;;1999.90;999.90;;;;;;;;;;4917211;29;20578;-77
2023/07/21 12:40:42;;;;;;;1999.90;999.90;;;;;;;;;;4916719;29;20678;-77
2023/07/21 12:43:28;;;;;;;1999.90;999.90;;;;;;;;;;4917129;29;20217;-76
2023/07/21 12:46:14;;;;;;;1999.90;999.90;;;;;;;;;;4917308;29;20210;-75
2023/07/21 12:49:00;;;;;;;1999.90;999.90;;;;;;;;;;4916976;29;20285;-77
2023/07/21 12:51:45;;;;;;;1999.90;999.90;;;;;;;;;;4917007;29;20211;-76
2023/07/21 12:54:33;;;;;;;1999.90;999.90;;;;;;;;;;4916157;29;20103;-77
2023/07/21 12:57:18;;;;;;;1999.90;999.90;;;;;;;;;;4917196;29;20213;-77
2023/07/21 13:00:06;;;;;;;1999.90;999.90;;;;;;;;;;4916824;29;20702;-76
2023/07/21 13:02:51;;;;;;;1999.90;999.90;;;;;;;;;;4916943;29;20721;-76
2023/07/21 13:05:36;;;;;;;1999.90;999.90;;;;;;;;;;4916846;29;20270;-78
2023/07/21 13:08:21;;;;;;;1999.90;999.90;;;;;;;;;;4916734;29;20229;-76
2023/07/21 13:11:06;;;;;;;1999.90;999.90;;;;;;;;;;4916030;29;20210;-76
2023/07/21 13:13:51;;;;;;;1999.90;999.90;;;;;;;;;;4916921;29;20239;-78
2023/07/21 13:16:38;;;;;;;1999.90;999.90;;;;;;;;;;4918172;29;20431;-78
2023/07/21 13:19:23;;;;;;;1999.90;999.90;;;;;;;;;;4909188;29;20210;-78
2023/07/21 13:22:08;;;;;;;1999.90;999.90;;;;;;;;;;4898049;29;20236;-76
2023/07/21 13:24:53;;;;;;;1999.90;999.90;;;;;;;;;;4897476;29;20270;-77
2023/07/21 13:27:37;;;;;;;1999.90;999.90;;;;;;;;;;4913210;29;20217;-77
2023/07/21 13:30:22;;;;;;;1999.90;999.90;;;;;;;;;;4909854;29;20201;-76
2023/07/21 13:33:09;;;;;;;1999.90;999.90;;;;;;;;;;4907642;29;20538;-77
2023/07/21 13:35:54;;;;;;;1999.90;999.90;;;;;;;;;;4923703;29;20287;-76
2023/07/21 13:38:39;;;;;;;1999.90;999.90;;;;;;;;;;4930128;29;20210;-77
2023/07/21 13:41:23;;;;;;;1999.90;999.90;;;;;;;;;;4925285;29;20222;-76
2023/07/21 13:44:08;;;;;;;1999.90;999.90;;;;;;;;;;4922414;29;20319;-75
2023/07/21 13:46:53;;;;;;;1999.90;999.90;;;;;;;;;;4923639;29;20215;-77
2023/07/21 13:49:40;;;;;;;1999.90;999.90;;;;;;;;;;4925463;29;20227;-76
2023/07/21 13:52:27;;;;;;;1999.90;999.90;;;;;;;;;;4925226;29;20216;-77
2023/07/21 13:55:11;;;;;;;1999.90;999.90;;;;;;;;;;4926756;29;20435;-78
2023/07/21 13:57:56;;;;;;;1999.90;999.90;;;;;;;;;;4931348;29;20343;-78
2023/07/21 14:00:41;;;;;;;1999.90;999.90;;;;;;;;;;4930978;29;20320;-78
2023/07/21 14:03:27;;;;;;;1999.90;999.90;;;;;;;;;;4925903;29;20219;-78
2023/07/21 14:06:14;;;;;;;1999.90;999.90;;;;;;;;;;4921109;29;20223;-78
2023/07/21 14:08:59;;;;;;;1999.90;999.90;;;;;;;;;;4916460;29;20277;-79
2023/07/21 14:11:44;;;;;;;1999.90;999.90;;;;;;;;;;4919801;29;20232;-78
2023/07/21 14:14:29;;;;;;;1999.90;999.90;;;;;;;;;;4925391;29;20310;-79
2023/07/21 14:17:14;;;;;;;1999.90;999.90;;;;;;;;;;4918081;29;20436;-78
2023/07/21 14:19:59;;;;;;;1999.90;999.90;;;;;;;;;;4923532;29;20233;-79
2023/07/21 14:22:45;;;;;;;1999.90;999.90;;;;;;;;;;4925492;29;20252;-78
2023/07/21 14:25:30;;;;;;;1999.90;999.90;;;;;;;;;;4920628;29;20284;-78
2023/07/21 14:28:15;;;;;;;1999.90;999.90;;;;;;;;;;4923798;29;20236;-78
2023/07/21 14:31:01;;;;;;;1999.90;999.90;;;;;;;;;;4919377;29;20420;-78
2023/07/21 14:33:46;;;;;;;1999.90;999.90;;;;;;;;;;4925954;29;20239;-76
2023/07/21 14:36:31;;;;;;;1999.90;999.90;;;;;;;;;;4928267;29;20214;-77
2023/07/21 14:39:17;;;;;;;1999.90;999.90;;;;;;;;;;4915916;29;20952;-79
2023/07/21 14:42:03;;;;;;;1999.90;999.90;;;;;;;;;;4923601;29;20293;-79
2023/07/21 14:44:48;;;;;;;1999.90;999.90;;;;;;;;;;4929251;29;20801;-76
2023/07/21 14:47:33;;;;;;;1999.90;999.90;;;;;;;;;;4930994;29;20586;-76
2023/07/21 14:50:18;;;;;;;1999.90;999.90;;;;;;;;;;4928262;29;20405;-77
2023/07/21 14:53:03;;;;;;;1999.90;999.90;;;;;;;;;;4925042;29;20213;-76
2023/07/21 14:55:49;;;;;;;1999.90;999.90;;;;;;;;;;4927006;29;20314;-79
2023/07/21 14:58:35;;;;;;;1999.90;999.90;;;;;;;;;;4922516;29;20232;-77
2023/07/21 15:01:20;;;;;;;1999.90;999.90;;;;;;;;;;4930337;29;20733;-78
2023/07/21 15:04:05;;;;;;;1999.90;999.90;;;;;;;;;;4921945;29;20246;-76
2023/07/21 15:06:50;;;;;;;1999.90;999.90;;;;;;;;;;4927079;29;20215;-78
2023/07/21 15:09:35;;;;;;;1999.90;999.90;;;;;;;;;;4924812;29;20226;-77
2023/07/21 15:12:21;;;;;;;1999.90;999.90;;;;;;;;;;4920739;29;20220;-78
2023/07/21 15:15:06;;;;;;;1999.90;999.90;;;;;;;;;;4933277;29;20237;-78
2023/07/21 15:17:53;;;;;;;1999.90;999.90;;;;;;;;;;4933900;29;20294;-78
2023/07/21 15:20:38;;;;;;;1999.90;999.90;;;;;;;;;;4937647;29;20371;-77
2023/07/21 15:23:23;;;;;;;1999.90;999.90;;;;;;;;;;4938767;29;20719;-76
2023/07/21 15:26:08;;;;;;;1999.90;999.90;;;;;;;;;;4932450;29;20225;-77
2023/07/21 15:28:54;;;;;;;1999.90;999.90;;;;;;;;;;4936187;29;20227;-77
2023/07/21 15:31:40;;;;;;;1999.90;999.90;;;;;;;;;;4930904;29;20209;-77
2023/07/21 15:34:24;;;;;;;1999.90;999.90;;;;;;;;;;4928375;29;20824;-77
2023/07/21 15:37:09;;;;;;;1999.90;999.90;;;;;;;;;;4927847;29;20264;-76
2023/07/21 15:39:55;;;;;;;1999.90;999.90;;;;;;;;;;4930345;29;20218;-77
2023/07/21 15:42:41;;;;;;;1999.90;999.90;;;;;;;;;;4924551;29;20218;-76
2023/07/21 15:45:27;;;;;;;1999.90;999.90;;;;;;;;;;4927496;29;20229;-75
2023/07/21 15:48:12;;;;;;;1999.90;999.90;;;;;;;;;;4924329;29;20289;-76
2023/07/21 15:50:57;;;;;;;1999.90;999.90;;;;;;;;;;4928679;29;20305;-77
2023/07/21 15:53:42;;;;;;;1999.90;999.90;;;;;;;;;;4928833;29;20241;-77
2023/07/21 15:56:27;;;;;;;1999.90;999.90;;;;;;;;;;4932987;29;20342;-74
2023/07/21 15:59:12;;;;;;;1999.90;999.90;;;;;;;;;;4923267;29;20306;-75
2023/07/21 16:01:58;;;;;;;1999.90;999.90;;;;;;;;;;4928264;29;20277;-76
2023/07/21 16:04:44;;;;;;;1999.90;999.90;;;;;;;;;;4930358;29;20246;-74
2023/07/21 16:07:29;;;;;;;1999.90;999.90;;;;;;;;;;4932866;29;20734;-74
2023/07/21 16:10:14;;;;;;;1999.90;999.90;;;;;;;;;;4929325;29;20312;-75
2023/07/21 16:12:59;;;;;;;1999.90;999.90;;;;;;;;;;4927461;29;20705;-74
2023/07/21 16:15:44;;;;;;;1999.90;999.90;;;;;;;;;;4929001;29;20217;-74
2023/07/21 16:18:31;;;;;;;1999.90;999.90;;;;;;;;;;4921998;29;20225;-75
2023/07/21 16:21:17;;;;;;;1999.90;999.90;;;;;;;;;;4927411;29;20301;-74
2023/07/21 16:24:02;;;;;;;1999.90;999.90;;;;;;;;;;4923858;29;20236;-76
2023/07/21 16:26:48;;;;;;;1999.90;999.90;;;;;;;;;;4929979;29;20330;-74
2023/07/21 16:29:34;;;;;;;1999.90;999.90;;;;;;;;;;4928613;29;20317;-74
2023/07/21 16:32:19;;;;;;;1999.90;999.90;;;;;;;;;;4928739;29;20216;-74
2023/07/21 16:35:06;;;;;;;1999.90;999.90;;;;;;;;;;4931449;29;20786;-74
2023/07/21 16:37:53;;;;;;;1999.90;999.90;;;;;;;;;;4932744;29;20217;-74
2023/07/21 16:40:39;;;;;;;1999.90;999.90;;;;;;;;;;4929954;29;20406;-77
2023/07/21 16:43:24;;;;;;;1999.90;999.90;;;;;;;;;;4929160;29;20341;-74
2023/07/21 16:46:10;;;;;;;1999.90;999.90;;;;;;;;;;4930425;29;20289;-74
2023/07/21 16:48:55;;;;;;;1999.90;999.90;;;;;;;;;;4925823;29;20241;-74
2023/07/21 16:51:41;;;;;;;1999.90;999.90;;;;;;;;;;4930067;29;20696;-75
2023/07/21 16:54:28;;;;;;;1999.90;999.90;;;;;;;;;;4928204;29;20288;-75
2023/07/21 16:57:15;;;;;;;1999.90;999.90;;;;;;;;;;4928158;29;20253;-74
2023/07/21 17:00:10;;;;;;;1999.90;999.90;;;;;;;;;;4926589;29;20201;-77
2023/07/21 17:02:56;;;;;;;1999.90;999.90;;;;;;;;;;4931942;29;20592;-74
2023/07/21 17:05:41;;;;;;;1999.90;999.90;;;;;;;;;;4927742;29;20220;-75
2023/07/21 17:08:27;;;;;;;1999.90;999.90;;;;;;;;;;4928826;29;20280;-74
2023/07/21 17:11:12;;;;;;;1999.90;999.90;;;;;;;;;;4925444;29;20263;-73
2023/07/21 17:13:57;;;;;;;1999.90;999.90;;;;;;;;;;4922597;29;20237;-76
2023/07/21 17:16:42;;;;;;;1999.90;999.90;;;;;;;;;;4927647;29;20428;-75
2023/07/21 17:19:27;;;;;;;1999.90;999.90;;;;;;;;;;4931579;29;20297;-75